»·PEaware :: SWA575 KSAN-KLAX

SWA575 :: KSAN-KLAX

FLIGHT INFORMATION

Flight Status: Arrived
Operator:
Southwest Airlines
More flights by this operator :: More flights under this callsign
Pilot: Nehseem A. (13724)
Aircraft: BOEING 737-200
(B732)
More flights by this aircraft type
Origin: KSAN San Diego Intl-Lindbergh
United States
Destination: KLAX Los Angeles Intl
United States
More flights between these airports :: More routes between these airports
Route: +PEBLE6 SLI
File this flight plan on PilotEdge
Remarks:
Altitude:
(Current/Filed)
10,000ft
Speed:
(Current/Filed)
290kts
Departed: 11-Feb-19 07:38 PM
Arrived: 11-Feb-19 08:11 PM
Distance/Time
Traveled:
95nm/0:33
Distance/Time
To Go:
Arrived

Flight Plot

Page will automatically refresh every two minutes.


Map Options




Map Legend


Flown Route
Filed Route
Departure Airport
Arrival Airport
Navaid (VOR, NDB)
Fix

Horizontal Profiles

Position Reports

Time Latitude Longitude Heading Altitude Ground
Speed
11-Feb-19 19:13 32.733005 -117.199103 93 26ft 0kts
11-Feb-19 19:14 32.733005 -117.199103 93 26ft 0kts
11-Feb-19 19:15 32.733005 -117.199103 93 26ft 0kts
11-Feb-19 19:17 32.733005 -117.199103 93 26ft 0kts
11-Feb-19 19:18 32.733005 -117.199103 93 26ft 0kts
11-Feb-19 19:19 32.733005 -117.199103 93 26ft 0kts
11-Feb-19 19:20 32.733005 -117.199103 93 26ft 0kts
11-Feb-19 19:21 32.733005 -117.199103 93 26ft 0kts
11-Feb-19 19:22 32.733005 -117.199103 93 26ft 0kts
11-Feb-19 19:23 32.733005 -117.199103 93 26ft 0kts
11-Feb-19 19:24 32.733005 -117.199103 93 26ft 0kts
11-Feb-19 19:25 32.733005 -117.199104 93 26ft 0kts
11-Feb-19 19:26 32.733033 -117.199634 93 26ft 2kts
11-Feb-19 19:27 32.732740 -117.200030 12 26ft 1kts
11-Feb-19 19:28 32.732732 -117.200031 12 26ft 0kts
11-Feb-19 19:29 32.732732 -117.200031 12 26ft 0kts
11-Feb-19 19:30 32.732733 -117.200031 12 26ft 0kts
11-Feb-19 19:31 32.733313 -117.199884 11 26ft 11kts
11-Feb-19 19:31 32.734311 -117.199587 14 26ft 0kts
11-Feb-19 19:33 32.734686 -117.199466 20 26ft 7kts
11-Feb-19 19:34 32.733764 -117.194765 106 26ft 23kts
11-Feb-19 19:35 32.731621 -117.185957 105 26ft 28kts
11-Feb-19 19:35 32.729779 -117.178360 105 26ft 28kts
11-Feb-19 19:37 32.729494 -117.176797 77 26ft 1kts
11-Feb-19 19:38 32.731036 -117.179257 286 26ft 67kts
11-Feb-19 19:38 32.740734 -117.217946 294 1298ft 189kts
11-Feb-19 19:39 32.774499 -117.274978 305 3404ft 221kts
11-Feb-19 19:40 32.811568 -117.342149 305 5919ft 258kts
11-Feb-19 19:41 32.852326 -117.416093 303 9016ft 265kts
11-Feb-19 19:42 32.910318 -117.473898 332 10166ft 296kts
11-Feb-19 19:43 32.982693 -117.522949 331 10019ft 293kts
11-Feb-19 19:44 33.029615 -117.598069 300 9924ft 280kts
11-Feb-19 19:45 33.070058 -117.675864 307 10009ft 273kts
11-Feb-19 19:46 33.112294 -117.751101 306 10128ft 302kts
11-Feb-19 19:47 33.164551 -117.829092 313 9838ft 304kts
11-Feb-19 19:48 33.223341 -117.891308 341 9869ft 292kts
11-Feb-19 19:49 33.294711 -117.900778 2 10120ft 276kts
11-Feb-19 19:50 33.364583 -117.901322 353 9669ft 298kts
11-Feb-19 19:51 33.435430 -117.923015 341 9713ft 289kts
11-Feb-19 19:52 33.500587 -117.952264 340 8488ft 270kts
11-Feb-19 19:53 33.559106 -117.978503 342 6877ft 258kts
11-Feb-19 19:54 33.615942 -117.996405 347 5940ft 230kts
11-Feb-19 19:55 33.669403 -118.011461 343 5861ft 229kts
11-Feb-19 19:56 33.719247 -118.028674 342 5854ft 226kts
11-Feb-19 19:57 33.772118 -118.052148 340 5774ft 226kts
11-Feb-19 19:58 33.825605 -118.057255 3 5343ft 236kts
11-Feb-19 19:59 33.878945 -118.051236 1 4920ft 211kts
11-Feb-19 20:00 33.930517 -118.047810 2 4818ft 198kts
11-Feb-19 20:01 33.975998 -118.048226 330 4869ft 187kts
11-Feb-19 20:02 33.996250 -118.090625 281 4764ft 185kts
11-Feb-19 20:03 33.984429 -118.139390 247 4558ft 192kts
11-Feb-19 20:04 33.973927 -118.192191 258 3726ft 192kts
11-Feb-19 20:05 33.967697 -118.245494 265 2675ft 187kts
11-Feb-19 20:06 33.963258 -118.295272 261 1838ft 156kts
11-Feb-19 20:07 33.958737 -118.336978 262 1208ft 142kts
11-Feb-19 20:08 33.954723 -118.376039 263 610ft 135kts
11-Feb-19 20:09 33.950919 -118.413395 267 134ft 112kts
11-Feb-19 20:10 33.947890 -118.427407 212 134ft 8kts
11-Feb-19 20:11 33.946538 -118.425154 82 134ft 18kts
11-Feb-19 20:12 33.947177 -118.418961 81 134ft 32kts
11-Feb-19 20:13 33.948189 -118.410446 84 134ft 36kts
11-Feb-19 20:14 33.947211 -118.405715 126 134ft 16kts

Navigation Log

Ident Type
Flight plan parsing failed, navigation log unavailable